Abel Matutes — ECPD — position and weather

sailwx.info

Track history (hours):
 
Tides and Currents Weather Stations Pressure Air Temp Water Temp Dewpoint Dewpoint Depression Visibility Wind Speed Wind Dir Waves Ship Positions

Abel Matutes

Last reported at 2017-Oct-20 11:48 UTC. Time now 2017-Oct-20 14:31 UTC.
Position N 39°30' E 002°22'.

Length 190 m; draft 5.5 m.

Type: Passenger vessel. MMSI: 224402000.

Date/timePositionNaut miles runAvg speedWind from/ knotsBaromVisibWave heightAir tempDewpointWater temp
2017-Oct-20 11:48N 39°30' E 002°22'619.4
2017-Oct-20 11:30N 39°26' E 002°28'918.0
2017-Oct-20 11:00N 39°32' E 002°37'1 2.5
2017-Oct-20 10:30N 39°33' E 002°38'0 0.0
2017-Oct-20 10:00N 39°33' E 002°38'0 0.0
2017-Oct-20 09:30N 39°33' E 002°38'0 0.0
2017-Oct-20 08:59N 39°33' E 002°38'0 0.0
2017-Oct-20 08:29N 39°33' E 002°38'0 0.0
2017-Oct-20 07:59N 39°33' E 002°38'0 0.0
2017-Oct-20 07:28N 39°33' E 002°38'0 0.0
2017-Oct-20 06:55N 39°33' E 002°38'0 0.0
2017-Oct-20 06:25N 39°33' E 002°38'0 0.0
2017-Oct-20 06:00N 39°33' E 002°38'0 0.0
2017-Oct-20 05:30N 39°33' E 002°38'0 0.0
2017-Oct-20 05:00N 39°33' E 002°38'0 0.0
2017-Oct-20 04:30N 39°33' E 002°38'1 1.9
2017-Oct-20 04:00N 39°32' E 002°39'1019.1
2017-Oct-20 03:30N 39°26' E 002°29'9919.1
2017-Oct-19 22:18N 41°04' E 002°12'517.7
2017-Oct-19 22:00N 41°10' E 002°12'917.4
2017-Oct-19 21:30N 41°18' E 002°10'0 0.0
2017-Oct-19 17:06N 41°18' E 002°11'10919.9
2017-Oct-19 11:38N 39°30' E 002°23'219.7
2017-Oct-19 11:30N 39°28' E 002°26'816.0
2017-Oct-19 11:00N 39°30' E 002°36'3 6.2
2017-Oct-19 10:26N 39°33' E 002°38'0 0.0
2017-Oct-19 09:59N 39°33' E 002°38'0 0.0
2017-Oct-19 09:29N 39°33' E 002°38'0 0.0
2017-Oct-19 08:58N 39°33' E 002°38'0 0.0
2017-Oct-19 08:28N 39°33' E 002°38'0 0.0
2017-Oct-19 07:58N 39°33' E 002°38'0 0.0
2017-Oct-19 07:30N 39°33' E 002°38'0 0.0
2017-Oct-19 07:00N 39°33' E 002°38'0 0.0
2017-Oct-19 06:29N 39°33' E 002°38'0 0.0
2017-Oct-19 05:59N 39°33' E 002°38'0 0.0
2017-Oct-19 05:29N 39°33' E 002°38'0 0.0
2017-Oct-19 04:59N 39°33' E 002°38'0 0.0
2017-Oct-19 04:30N 39°33' E 002°38'1 1.5
2017-Oct-19 04:00N 39°32' E 002°38'918.7
2017-Oct-19 03:30N 39°26' E 002°30'10018.5
2017-Oct-18 22:06N 41°05' E 002°11'318.8
2017-Oct-18 21:58N 41°07' E 002°11'919.2
2017-Oct-18 21:30N 41°16' E 002°11'2 0.5
2017-Oct-18 17:28N 41°18' E 002°11'10818.6
2017-Oct-18 11:38N 39°30' E 002°21'320.0
2017-Oct-18 11:29N 39°28' E 002°24'817.5
2017-Oct-18 11:00N 39°29' E 002°35'4 8.8
2017-Oct-18 10:30N 39°33' E 002°38'0 0.0
2017-Oct-18 09:58N 39°33' E 002°38'0 0.0
2017-Oct-18 09:28N 39°33' E 002°38'0 0.0
2017-Oct-18 08:58N 39°33' E 002°38'0 0.0
2017-Oct-18 08:27N 39°33' E 002°38'0 0.0
2017-Oct-18 08:00N 39°33' E 002°38'0 0.0
2017-Oct-18 07:30N 39°33' E 002°38'0 0.0
2017-Oct-18 06:59N 39°33' E 002°38'0 0.0
2017-Oct-18 06:29N 39°33' E 002°38'0 0.0
2017-Oct-18 05:59N 39°33' E 002°38'0 0.0
2017-Oct-18 05:28N 39°33' E 002°38'0 0.0
2017-Oct-18 04:58N 39°33' E 002°38'0 0.0
2017-Oct-18 04:30N 39°33' E 002°38'1 1.5
2017-Oct-18 04:00N 39°33' E 002°39'918.7
2017-Oct-18 03:30N 39°26' E 002°31'10018.5
2017-Oct-17 22:05N 41°05' E 002°12'519.7
2017-Oct-17 21:51N 41°10' E 002°11'819.6
2017-Oct-17 21:26N 41°18' E 002°11'10911.1
2017-Oct-17 11:37N 39°29' E 002°23'219.5
2017-Oct-17 11:30N 39°28' E 002°25'816.3
2017-Oct-17 11:00N 39°29' E 002°35'4 7.4
2017-Oct-17 10:28N 39°33' E 002°38'0 0.0
2017-Oct-17 09:55N 39°33' E 002°38'0 0.0
2017-Oct-17 09:28N 39°33' E 002°38'0 0.0
2017-Oct-17 09:00N 39°33' E 002°38'0 0.0
2017-Oct-17 08:30N 39°33' E 002°38'0 0.0
2017-Oct-17 08:00N 39°33' E 002°38'0 0.0
2017-Oct-17 07:29N 39°33' E 002°38'0 0.0
2017-Oct-17 06:59N 39°33' E 002°38'9711.1
2017-Oct-16 22:16N 41°08' E 002°11'520.3
2017-Oct-16 22:00N 41°13' E 002°11'5 1.2
2017-Oct-16 17:41N 41°18' E 002°11'10818.1
2017-Oct-16 11:42N 39°30' E 002°22'420.0
2017-Oct-16 11:30N 39°28' E 002°25'1016.4
2017-Oct-16 10:53N 39°31' E 002°38'1 3.1
2017-Oct-16 10:29N 39°33' E 002°38'0 0.0
2017-Oct-16 09:58N 39°33' E 002°38'0 0.0
2017-Oct-16 09:28N 39°33' E 002°38'0 0.0
2017-Oct-16 08:58N 39°33' E 002°38'0 0.0
2017-Oct-16 08:30N 39°33' E 002°38'0 0.0
2017-Oct-16 08:00N 39°33' E 002°38'0 0.0
2017-Oct-16 07:30N 39°33' E 002°38'0 0.0
2017-Oct-16 06:59N 39°33' E 002°38'0 0.0
2017-Oct-16 06:29N 39°33' E 002°38'0 0.0
2017-Oct-16 05:59N 39°33' E 002°38'0 0.0
2017-Oct-16 05:28N 39°33' E 002°38'0 0.0
2017-Oct-16 05:00N 39°33' E 002°38'1 1.6
2017-Oct-16 04:30N 39°33' E 002°39'816.7
2017-Oct-16 04:00N 39°26' E 002°32'10217.3
2017-Oct-15 22:07N 41°07' E 002°11'219.5
2017-Oct-15 22:00N 41°09' E 002°11'918.8
2017-Oct-15 21:30N 41°18' E 002°10'0 0.0
2017-Oct-14 17:01N 41°18' E 002°11'015.8
2017-Oct-14 17:00N 41°18' E 002°11'2318.1
2017-Oct-14 15:45N 40°55' E 002°13'920.8
2017-Oct-14 15:19N 40°46' E 002°13'721.1
2017-Oct-14 15:00N 40°40' E 002°14'1121.1
2017-Oct-14 14:30N 40°29' E 002°14'1020.8
2017-Oct-14 14:00N 40°19' E 002°15'1020.1
2017-Oct-14 13:30N 40°09' E 002°15'1019.6
2017-Oct-14 13:00N 39°59' E 002°16'3019.2
2017-Oct-14 11:27N 39°30' E 002°23'817.8
2017-Oct-14 11:00N 39°27' E 002°32'816.3
2017-Oct-14 10:30N 39°33' E 002°38'1 1.3
2017-Oct-14 09:59N 39°33' E 002°38'0 0.0
2017-Oct-14 09:29N 39°33' E 002°38'0 0.0
2017-Oct-14 08:58N 39°33' E 002°38'0 0.0
2017-Oct-14 08:28N 39°33' E 002°38'0 0.0
2017-Oct-14 07:58N 39°33' E 002°38'0 0.0
2017-Oct-14 07:30N 39°33' E 002°38'0 0.0
2017-Oct-14 07:00N 39°33' E 002°38'0 0.0
2017-Oct-14 06:30N 39°33' E 002°38'0 0.0
2017-Oct-14 05:59N 39°33' E 002°38'0 0.0
2017-Oct-14 05:29N 39°33' E 002°38'0 0.0
2017-Oct-14 04:59N 39°33' E 002°38'0 0.0
2017-Oct-14 04:30N 39°33' E 002°38'1 1.5
2017-Oct-14 04:00N 39°32' E 002°38'917.7
2017-Oct-14 03:30N 39°26' E 002°30'10318.4
2017-Oct-13 21:55N 41°08' E 002°13'919.6
2017-Oct-13 21:27N 41°17' E 002°11'1 0.2
2017-Oct-13 17:08N 41°18' E 002°11'10919.9
2017-Oct-13 11:39N 39°30' E 002°22'320.5
2017-Oct-13 11:30N 39°28' E 002°25'816.6
2017-Oct-13 11:00N 39°30' E 002°36'3 6.9
2017-Oct-13 10:30N 39°33' E 002°38'0 0.0
2017-Oct-13 10:00N 39°33' E 002°38'0 0.0
2017-Oct-13 09:27N 39°33' E 002°38'0 0.0
2017-Oct-13 08:59N 39°33' E 002°38'0 0.0
2017-Oct-13 08:29N 39°33' E 002°38'0 0.0
2017-Oct-13 07:59N 39°33' E 002°38'0 0.0
2017-Oct-13 07:28N 39°33' E 002°38'0 0.0
2017-Oct-13 06:58N 39°33' E 002°38'0 0.0
2017-Oct-13 06:28N 39°33' E 002°38'0 0.0
2017-Oct-13 06:00N 39°33' E 002°38'0 0.0
2017-Oct-13 05:30N 39°33' E 002°38'0 0.0
2017-Oct-13 05:00N 39°33' E 002°38'0 0.0
2017-Oct-13 04:30N 39°33' E 002°38'1 1.4
2017-Oct-13 04:00N 39°33' E 002°39'917.9
2017-Oct-13 03:30N 39°26' E 002°31'1118.2
2017-Oct-13 02:55N 39°32' E 002°19'717.6
2017-Oct-13 02:30N 39°39' E 002°16'918.4
2017-Oct-13 02:00N 39°48' E 002°15'7919.5
2017-Oct-12 21:57N 41°07' E 002°11'1019.6
2017-Oct-12 21:26N 41°17' E 002°11'1 0.2
2017-Oct-12 17:03N 41°18' E 002°11'11019.6
2017-Oct-12 11:27N 39°29' E 002°23'818.3
2017-Oct-12 11:00N 39°27' E 002°33'713.5
2017-Oct-12 10:31N 39°33' E 002°38'0 0.6
2017-Oct-12 09:55N 39°33' E 002°38'0 0.0
2017-Oct-12 09:28N 39°33' E 002°38'0 0.0
2017-Oct-12 08:58N 39°33' E 002°38'0 0.0
2017-Oct-12 08:31N 39°33' E 002°38'0 0.0
2017-Oct-12 08:00N 39°33' E 002°38'0 0.0
2017-Oct-12 07:30N 39°33' E 002°38'0 0.0
2017-Oct-12 07:00N 39°33' E 002°38'0 0.0
2017-Oct-12 06:29N 39°33' E 002°38'0 0.0
2017-Oct-12 05:56N 39°33' E 002°38'0 0.0
2017-Oct-12 05:29N 39°33' E 002°38'0 0.0
2017-Oct-12 04:58N 39°33' E 002°38'0 0.0
2017-Oct-12 04:30N 39°33' E 002°38'1 1.7
2017-Oct-12 04:00N 39°32' E 002°38'918.8
2017-Oct-12 03:30N 39°26' E 002°30'10418.4
2017-Oct-11 21:51N 41°08' E 002°11'919.7
2017-Oct-11 21:23N 41°18' E 002°11'1 0.2
2017-Oct-11 17:01N 41°18' E 002°11'016.2
2017-Oct-11 17:00N 41°18' E 002°11'11 0.6
2017-Oct-10 22:05N 41°07' E 002°11'220.0
2017-Oct-10 21:58N 41°10' E 002°11'818.0
2017-Oct-10 21:31N 41°18' E 002°10'  
Track history (hours):
 
Tides and Currents Weather Stations Pressure Air Temp Water Temp Dewpoint Dewpoint Depression Visibility Wind Speed Wind Dir Waves Ship Positions

Abel Matutes

Last reported at 2017-Oct-20 11:48 UTC. Time now 2017-Oct-20 14:31 UTC.
Position N 39°30' E 002°22'.

Length 190 m; draft 5.5 m.

Type: Passenger vessel. MMSI: 224402000.

Date/timePositionNaut miles runAvg speedWind from/ knotsBaromVisibWave heightAir tempDewpointWater temp
2017-Oct-20 11:48N 39°30' E 002°22'619.4
2017-Oct-20 11:30N 39°26' E 002°28'918.0
2017-Oct-20 11:00N 39°32' E 002°37'1 2.5
2017-Oct-20 10:30N 39°33' E 002°38'0 0.0
2017-Oct-20 10:00N 39°33' E 002°38'0 0.0
2017-Oct-20 09:30N 39°33' E 002°38'0 0.0
2017-Oct-20 08:59N 39°33' E 002°38'0 0.0
2017-Oct-20 08:29N 39°33' E 002°38'0 0.0
2017-Oct-20 07:59N 39°33' E 002°38'0 0.0
2017-Oct-20 07:28N 39°33' E 002°38'0 0.0
2017-Oct-20 06:55N 39°33' E 002°38'0 0.0
2017-Oct-20 06:25N 39°33' E 002°38'0 0.0
2017-Oct-20 06:00N 39°33' E 002°38'0 0.0
2017-Oct-20 05:30N 39°33' E 002°38'0 0.0
2017-Oct-20 05:00N 39°33' E 002°38'0 0.0
2017-Oct-20 04:30N 39°33' E 002°38'1 1.9
2017-Oct-20 04:00N 39°32' E 002°39'1019.1
2017-Oct-20 03:30N 39°26' E 002°29'9919.1
2017-Oct-19 22:18N 41°04' E 002°12'517.7
2017-Oct-19 22:00N 41°10' E 002°12'917.4
2017-Oct-19 21:30N 41°18' E 002°10'0 0.0
2017-Oct-19 17:06N 41°18' E 002°11'10919.9
2017-Oct-19 11:38N 39°30' E 002°23'219.7
2017-Oct-19 11:30N 39°28' E 002°26'816.0
2017-Oct-19 11:00N 39°30' E 002°36'3 6.2
2017-Oct-19 10:26N 39°33' E 002°38'0 0.0
2017-Oct-19 09:59N 39°33' E 002°38'0 0.0
2017-Oct-19 09:29N 39°33' E 002°38'0 0.0
2017-Oct-19 08:58N 39°33' E 002°38'0 0.0
2017-Oct-19 08:28N 39°33' E 002°38'0 0.0
2017-Oct-19 07:58N 39°33' E 002°38'0 0.0
2017-Oct-19 07:30N 39°33' E 002°38'0 0.0
2017-Oct-19 07:00N 39°33' E 002°38'0 0.0
2017-Oct-19 06:29N 39°33' E 002°38'0 0.0
2017-Oct-19 05:59N 39°33' E 002°38'0 0.0
2017-Oct-19 05:29N 39°33' E 002°38'0 0.0
2017-Oct-19 04:59N 39°33' E 002°38'0 0.0
2017-Oct-19 04:30N 39°33' E 002°38'1 1.5
2017-Oct-19 04:00N 39°32' E 002°38'918.7
2017-Oct-19 03:30N 39°26' E 002°30'10018.5
2017-Oct-18 22:06N 41°05' E 002°11'318.8
2017-Oct-18 21:58N 41°07' E 002°11'919.2
2017-Oct-18 21:30N 41°16' E 002°11'2 0.5
2017-Oct-18 17:28N 41°18' E 002°11'10818.6
2017-Oct-18 11:38N 39°30' E 002°21'320.0
2017-Oct-18 11:29N 39°28' E 002°24'817.5
2017-Oct-18 11:00N 39°29' E 002°35'4 8.8
2017-Oct-18 10:30N 39°33' E 002°38'0 0.0
2017-Oct-18 09:58N 39°33' E 002°38'0 0.0
2017-Oct-18 09:28N 39°33' E 002°38'0 0.0
2017-Oct-18 08:58N 39°33' E 002°38'0 0.0
2017-Oct-18 08:27N 39°33' E 002°38'0 0.0
2017-Oct-18 08:00N 39°33' E 002°38'0 0.0
2017-Oct-18 07:30N 39°33' E 002°38'0 0.0
2017-Oct-18 06:59N 39°33' E 002°38'0 0.0
2017-Oct-18 06:29N 39°33' E 002°38'0 0.0
2017-Oct-18 05:59N 39°33' E 002°38'0 0.0
2017-Oct-18 05:28N 39°33' E 002°38'0 0.0
2017-Oct-18 04:58N 39°33' E 002°38'0 0.0
2017-Oct-18 04:30N 39°33' E 002°38'1 1.5
2017-Oct-18 04:00N 39°33' E 002°39'918.7
2017-Oct-18 03:30N 39°26' E 002°31'10018.5
2017-Oct-17 22:05N 41°05' E 002°12'519.7
2017-Oct-17 21:51N 41°10' E 002°11'819.6
2017-Oct-17 21:26N 41°18' E 002°11'10911.1
2017-Oct-17 11:37N 39°29' E 002°23'219.5
2017-Oct-17 11:30N 39°28' E 002°25'816.3
2017-Oct-17 11:00N 39°29' E 002°35'4 7.4
2017-Oct-17 10:28N 39°33' E 002°38'0 0.0
2017-Oct-17 09:55N 39°33' E 002°38'0 0.0
2017-Oct-17 09:28N 39°33' E 002°38'0 0.0
2017-Oct-17 09:00N 39°33' E 002°38'0 0.0
2017-Oct-17 08:30N 39°33' E 002°38'0 0.0
2017-Oct-17 08:00N 39°33' E 002°38'0 0.0
2017-Oct-17 07:29N 39°33' E 002°38'0 0.0
2017-Oct-17 06:59N 39°33' E 002°38'9711.1
2017-Oct-16 22:16N 41°08' E 002°11'520.3
2017-Oct-16 22:00N 41°13' E 002°11'5 1.2
2017-Oct-16 17:41N 41°18' E 002°11'10818.1
2017-Oct-16 11:42N 39°30' E 002°22'420.0
2017-Oct-16 11:30N 39°28' E 002°25'1016.4
2017-Oct-16 10:53N 39°31' E 002°38'1 3.1
2017-Oct-16 10:29N 39°33' E 002°38'0 0.0
2017-Oct-16 09:58N 39°33' E 002°38'0 0.0
2017-Oct-16 09:28N 39°33' E 002°38'0 0.0
2017-Oct-16 08:58N 39°33' E 002°38'0 0.0
2017-Oct-16 08:30N 39°33' E 002°38'0 0.0
2017-Oct-16 08:00N 39°33' E 002°38'0 0.0
2017-Oct-16 07:30N 39°33' E 002°38'0 0.0
2017-Oct-16 06:59N 39°33' E 002°38'0 0.0
2017-Oct-16 06:29N 39°33' E 002°38'0 0.0
2017-Oct-16 05:59N 39°33' E 002°38'0 0.0
2017-Oct-16 05:28N 39°33' E 002°38'0 0.0
2017-Oct-16 05:00N 39°33' E 002°38'1 1.6
2017-Oct-16 04:30N 39°33' E 002°39'816.7
2017-Oct-16 04:00N 39°26' E 002°32'10217.3
2017-Oct-15 22:07N 41°07' E 002°11'219.5
2017-Oct-15 22:00N 41°09' E 002°11'918.8
2017-Oct-15 21:30N 41°18' E 002°10'0 0.0
2017-Oct-14 17:01N 41°18' E 002°11'015.8
2017-Oct-14 17:00N 41°18' E 002°11'2318.1
2017-Oct-14 15:45N 40°55' E 002°13'920.8
2017-Oct-14 15:19N 40°46' E 002°13'721.1
2017-Oct-14 15:00N 40°40' E 002°14'1121.1
2017-Oct-14 14:30N 40°29' E 002°14'1020.8
2017-Oct-14 14:00N 40°19' E 002°15'1020.1
2017-Oct-14 13:30N 40°09' E 002°15'1019.6
2017-Oct-14 13:00N 39°59' E 002°16'3019.2
2017-Oct-14 11:27N 39°30' E 002°23'817.8
2017-Oct-14 11:00N 39°27' E 002°32'816.3
2017-Oct-14 10:30N 39°33' E 002°38'1 1.3
2017-Oct-14 09:59N 39°33' E 002°38'0 0.0
2017-Oct-14 09:29N 39°33' E 002°38'0 0.0
2017-Oct-14 08:58N 39°33' E 002°38'0 0.0
2017-Oct-14 08:28N 39°33' E 002°38'0 0.0
2017-Oct-14 07:58N 39°33' E 002°38'0 0.0
2017-Oct-14 07:30N 39°33' E 002°38'0 0.0
2017-Oct-14 07:00N 39°33' E 002°38'0 0.0
2017-Oct-14 06:30N 39°33' E 002°38'0 0.0
2017-Oct-14 05:59N 39°33' E 002°38'0 0.0
2017-Oct-14 05:29N 39°33' E 002°38'0 0.0
2017-Oct-14 04:59N 39°33' E 002°38'0 0.0
2017-Oct-14 04:30N 39°33' E 002°38'1 1.5
2017-Oct-14 04:00N 39°32' E 002°38'917.7
2017-Oct-14 03:30N 39°26' E 002°30'10318.4
2017-Oct-13 21:55N 41°08' E 002°13'919.6
2017-Oct-13 21:27N 41°17' E 002°11'1 0.2
2017-Oct-13 17:08N 41°18' E 002°11'10919.9
2017-Oct-13 11:39N 39°30' E 002°22'320.5
2017-Oct-13 11:30N 39°28' E 002°25'816.6
2017-Oct-13 11:00N 39°30' E 002°36'3 6.9
2017-Oct-13 10:30N 39°33' E 002°38'0 0.0
2017-Oct-13 10:00N 39°33' E 002°38'0 0.0
2017-Oct-13 09:27N 39°33' E 002°38'0 0.0
2017-Oct-13 08:59N 39°33' E 002°38'0 0.0
2017-Oct-13 08:29N 39°33' E 002°38'0 0.0
2017-Oct-13 07:59N 39°33' E 002°38'0 0.0
2017-Oct-13 07:28N 39°33' E 002°38'0 0.0
2017-Oct-13 06:58N 39°33' E 002°38'0 0.0
2017-Oct-13 06:28N 39°33' E 002°38'0 0.0
2017-Oct-13 06:00N 39°33' E 002°38'0 0.0
2017-Oct-13 05:30N 39°33' E 002°38'0 0.0
2017-Oct-13 05:00N 39°33' E 002°38'0 0.0
2017-Oct-13 04:30N 39°33' E 002°38'1 1.4
2017-Oct-13 04:00N 39°33' E 002°39'917.9
2017-Oct-13 03:30N 39°26' E 002°31'1118.2
2017-Oct-13 02:55N 39°32' E 002°19'717.6
2017-Oct-13 02:30N 39°39' E 002°16'918.4
2017-Oct-13 02:00N 39°48' E 002°15'7919.5
2017-Oct-12 21:57N 41°07' E 002°11'1019.6
2017-Oct-12 21:26N 41°17' E 002°11'1 0.2
2017-Oct-12 17:03N 41°18' E 002°11'11019.6
2017-Oct-12 11:27N 39°29' E 002°23'818.3
2017-Oct-12 11:00N 39°27' E 002°33'713.5
2017-Oct-12 10:31N 39°33' E 002°38'0 0.6
2017-Oct-12 09:55N 39°33' E 002°38'0 0.0
2017-Oct-12 09:28N 39°33' E 002°38'0 0.0
2017-Oct-12 08:58N 39°33' E 002°38'0 0.0
2017-Oct-12 08:31N 39°33' E 002°38'0 0.0
2017-Oct-12 08:00N 39°33' E 002°38'0 0.0
2017-Oct-12 07:30N 39°33' E 002°38'0 0.0
2017-Oct-12 07:00N 39°33' E 002°38'0 0.0
2017-Oct-12 06:29N 39°33' E 002°38'0 0.0
2017-Oct-12 05:56N 39°33' E 002°38'0 0.0
2017-Oct-12 05:29N 39°33' E 002°38'0 0.0
2017-Oct-12 04:58N 39°33' E 002°38'0 0.0
2017-Oct-12 04:30N 39°33' E 002°38'1 1.7
2017-Oct-12 04:00N 39°32' E 002°38'918.8
2017-Oct-12 03:30N 39°26' E 002°30'10418.4
2017-Oct-11 21:51N 41°08' E 002°11'919.7
2017-Oct-11 21:23N 41°18' E 002°11'1 0.2
2017-Oct-11 17:01N 41°18' E 002°11'016.2
2017-Oct-11 17:00N 41°18' E 002°11'11 0.6
2017-Oct-10 22:05N 41°07' E 002°11'220.0
2017-Oct-10 21:58N 41°10' E 002°11'818.0
2017-Oct-10 21:31N 41°18' E 002°10'  

Dump ship's entire track history